Time;durP1;ratioP1;P1;durP2;ratioP2;P2;SDS_P1;SDS_P2;PMS_P1;PMS_P2;Temp;Humidity;BMP_temperature;BMP_pressure;BME280_temperature;BME280_humidity;BME280_pressure;Samples;Min_cycle;Max_cycle;Signal;HPM_P1;HPM_P2
2022/03/15 00:00:47;;;;;;;9.43;6.33;;;;;;;3.84;65.80;100183.75;5098653;27;40021;-77
2022/03/15 00:03:15;;;;;;;7.43;5.10;;;;;;;3.89;65.82;100181.94;5098196;27;40745;-74
2022/03/15 00:05:43;;;;;;;6.67;4.23;;;;;;;3.89;66.19;100181.94;5131122;27;42709;-75
2022/03/15 00:08:13;;;;;;;9.07;5.03;;;;;;;3.85;66.02;100175.00;5116184;27;20222;-78
2022/03/15 00:10:41;;;;;;;7.80;4.97;;;;;;;3.88;65.89;100174.09;5174128;27;40428;-75
2022/03/15 00:13:09;;;;;;;6.37;3.80;;;;;;;3.87;65.71;100178.47;5175393;27;41681;-78
2022/03/15 00:15:39;;;;;;;15.37;6.37;;;;;;;3.85;65.63;100182.88;5175523;27;43538;-77
2022/03/15 00:18:07;;;;;;;7.27;3.77;;;;;;;3.85;65.54;100182.88;5156235;27;41463;-77
2022/03/15 00:20:35;;;;;;;5.67;4.53;;;;;;;3.83;65.54;100187.25;5157120;27;41323;-78
2022/03/15 00:23:02;;;;;;;6.13;4.30;;;;;;;3.82;65.46;100184.69;5156021;27;41701;-75
2022/03/15 00:25:31;;;;;;;7.80;4.53;;;;;;;3.82;65.47;100180.31;5136087;27;42714;-72
2022/03/15 00:27:59;;;;;;;6.57;3.90;;;;;;;3.81;66.21;100175.09;5154476;27;43026;-76
2022/03/15 00:30:27;;;;;;;6.97;4.40;;;;;;;3.79;66.42;100177.72;5154839;27;40990;-74
2022/03/15 00:32:56;;;;;;;7.93;4.87;;;;;;;3.78;66.19;100172.50;5135945;27;41667;-78
2022/03/15 00:35:24;;;;;;;6.37;4.37;;;;;;;3.78;65.96;100178.63;5136313;27;43805;-75
2022/03/15 00:37:53;;;;;;;7.07;4.93;;;;;;;3.75;66.47;100168.16;5154254;27;42340;-80
2022/03/15 00:40:22;;;;;;;8.57;5.40;;;;;;;3.73;67.36;100169.94;5154272;27;40024;-76
2022/03/15 00:42:52;;;;;;;8.60;5.40;;;;;;;3.72;67.38;100170.81;5135310;27;41684;-78
2022/03/15 00:45:24;;;;;;;8.27;4.97;;;;;;;3.70;67.18;100172.63;5118987;27;41695;-75
2022/03/15 00:47:52;;;;;;;13.23;6.03;;;;;;;3.67;67.22;100167.41;5135643;27;42169;-73
2022/03/15 00:50:21;;;;;;;9.70;5.57;;;;;;;3.66;67.07;100163.06;5118696;27;39009;-73
2022/03/15 00:52:49;;;;;;;9.13;5.60;;;;;;;3.65;66.67;100166.56;5118257;27;41749;-79
2022/03/15 00:55:16;;;;;;;7.13;4.83;;;;;;;3.58;66.93;100154.47;5118017;27;44668;-79
2022/03/15 00:57:45;;;;;;;6.20;4.67;;;;;;;3.60;66.93;100168.38;5147468;27;42075;-79
2022/03/15 01:00:16;;;;;;;7.53;4.70;;;;;;;3.61;66.64;100170.09;5152146;27;41563;-75
2022/03/15 01:02:44;;;;;;;6.80;4.40;;;;;;;3.60;66.48;100169.25;5134162;27;42081;-78
2022/03/15 01:05:11;;;;;;;7.37;4.50;;;;;;;3.57;66.32;100163.19;5134744;27;41924;-77
2022/03/15 01:07:40;;;;;;;8.23;4.13;;;;;;;3.59;66.32;100169.25;5151128;27;41224;-80
2022/03/15 01:10:09;;;;;;;6.60;4.33;;;;;;;3.59;66.66;100174.50;5151857;27;41038;-74
2022/03/15 01:12:36;;;;;;;6.10;4.17;;;;;;;3.59;66.46;100170.13;5153665;27;42404;-74
2022/03/15 01:15:06;;;;;;;6.67;4.60;;;;;;;3.60;66.85;100176.22;5152507;27;42704;-73
2022/03/15 01:17:36;;;;;;;6.53;4.90;;;;;;;3.61;67.02;100165.72;5150132;27;43499;-78
2022/03/15 01:20:05;;;;;;;7.53;5.60;;;;;;;3.63;67.59;100168.34;5155125;27;40093;-78
2022/03/15 01:22:33;;;;;;;8.27;5.00;;;;;;;3.65;67.29;100169.19;5123775;27;40555;-78
2022/03/15 01:25:01;;;;;;;6.93;4.57;;;;;;;3.67;67.52;100161.31;5117624;27;43047;-77
2022/03/15 01:27:28;;;;;;;7.27;4.40;;;;;;;3.70;67.22;100164.75;5153153;27;42112;-76
2022/03/15 01:29:57;;;;;;;4.57;3.97;;;;;;;3.72;66.79;100156.84;5117938;27;41979;-78
2022/03/15 01:32:25;;;;;;;5.73;4.10;;;;;;;3.74;66.75;100165.56;5134766;27;42699;-79
2022/03/15 01:34:54;;;;;;;9.90;5.80;;;;;;;3.73;68.77;100142.88;5108411;27;43499;-76
2022/03/15 01:37:21;;;;;;;7.13;5.13;;;;;;;3.72;67.90;100151.63;5114328;27;43010;-78
2022/03/15 01:39:49;;;;;;;9.03;4.87;;;;;;;3.72;67.55;100149.00;5148617;27;39840;-78
2022/03/15 01:42:16;;;;;;;11.37;5.73;;;;;;;3.49;67.23;100113.53;5132412;27;42673;-75
2022/03/15 01:44:47;;;;;;;6.13;4.17;;;;;;;3.70;67.05;100133.31;5132605;27;43683;-76
2022/03/15 01:47:15;;;;;;;5.33;4.47;;;;;;;3.69;66.93;100141.22;5130060;27;43166;-74
2022/03/15 01:49:43;;;;;;;8.87;4.93;;;;;;;3.68;67.66;100126.38;5148852;27;39089;-75
2022/03/15 01:52:15;;;;;;;6.60;4.77;;;;;;;3.68;67.64;100129.88;5114122;27;42739;-75
2022/03/15 01:54:44;;;;;;;6.23;4.40;;;;;;;3.67;67.51;100136.00;5096986;27;43076;-74
2022/03/15 01:57:13;;;;;;;6.93;5.00;;;;;;;3.67;67.32;100138.59;5130829;27;40728;-79
2022/03/15 01:59:42;;;;;;;5.17;4.30;;;;;;;3.66;67.18;100134.25;5131704;27;40894;-75
2022/03/15 02:02:10;;;;;;;10.37;5.57;;;;;;;3.65;69.30;100118.56;5113721;27;42471;-77
2022/03/15 02:04:38;;;;;;;8.53;6.07;;;;;;;3.62;68.96;100129.94;5131862;27;43705;-78
2022/03/15 02:07:08;;;;;;;7.63;5.23;;;;;;;3.63;68.61;100121.19;5132228;27;42214;-78
2022/03/15 02:09:38;;;;;;;10.23;4.30;;;;;;;3.64;68.52;100124.69;5130944;27;38833;-79
2022/03/15 02:12:06;;;;;;;8.53;4.67;;;;;;;3.64;68.00;100128.16;5113512;27;40775;-74
2022/03/15 02:14:35;;;;;;;6.57;4.37;;;;;;;3.65;67.77;100124.66;5113547;27;41840;-73
2022/03/15 02:17:03;;;;;;;7.53;5.43;;;;;;;3.66;67.81;100122.91;5132122;27;42345;-77
2022/03/15 02:19:31;;;;;;;10.57;5.93;;;;;;;3.51;71.18;100068.97;5117138;27;39014;-76
2022/03/15 02:21:59;;;;;;;8.43;5.87;;;;;;;3.60;71.02;100101.13;5147400;27;42773;-77
2022/03/15 02:24:27;;;;;;;7.27;5.00;;;;;;;3.61;70.13;100104.63;5161151;27;43332;-76
2022/03/15 02:26:54;;;;;;;8.47;4.97;;;;;;;3.62;69.59;100114.22;5161869;27;41764;-77
2022/03/15 02:29:23;;;;;;;4.97;4.27;;;;;;;3.63;69.23;100102.84;5180864;27;40021;-76
2022/03/15 02:31:51;;;;;;;10.97;5.37;;;;;;;3.61;69.12;100126.44;5180446;27;41463;-74
2022/03/15 02:34:18;;;;;;;7.90;5.53;;;;;;;3.61;68.62;100122.97;5144478;27;43489;-75
2022/03/15 02:36:46;;;;;;;8.67;5.43;;;;;;;3.61;69.40;100110.72;5144119;27;42841;-78
2022/03/15 02:39:15;;;;;;;7.87;5.17;;;;;;;3.62;70.50;100095.88;5180392;27;40914;-78
2022/03/15 02:41:43;;;;;;;10.73;5.67;;;;;;;3.52;70.15;100086.44;5162199;27;41770;-76
2022/03/15 02:44:11;;;;;;;7.43;5.03;;;;;;;3.56;69.50;100089.00;5144365;27;42573;-76
2022/03/15 02:46:39;;;;;;;6.93;5.30;;;;;;;3.54;70.57;100074.19;5161568;27;42302;-76
2022/03/15 02:49:07;;;;;;;6.60;4.93;;;;;;;3.65;69.98;100093.22;5161644;27;40814;-78
2022/03/15 02:51:35;;;;;;;8.27;4.70;;;;;;;3.65;69.55;100082.75;5161891;27;41693;-75
2022/03/15 02:54:07;;;;;;;9.63;5.00;;;;;;;3.67;69.50;100091.44;5161449;27;45814;-75
2022/03/15 02:56:42;;;;;;;8.97;4.87;;;;;;;3.66;69.25;100094.09;5178363;27;42078;-75
2022/03/15 02:59:09;;;;;;;9.50;5.57;;;;;;;3.66;69.25;100105.44;5179638;27;40180;-77
2022/03/15 03:01:37;;;;;;;6.57;5.13;;;;;;;3.68;69.06;100103.66;5161812;27;41530;-80
2022/03/15 03:04:04;;;;;;;9.63;5.63;;;;;;;3.68;70.32;100093.19;5179754;27;43599;-78
2022/03/15 03:06:32;;;;;;;10.47;5.80;;;;;;;3.66;70.31;100109.81;5161475;27;42286;-72
2022/03/15 03:09:00;;;;;;;7.43;5.23;;;;;;;3.67;70.01;100112.41;5161264;27;38993;-76
2022/03/15 03:11:27;;;;;;;8.10;5.43;;;;;;;3.67;69.86;100101.94;5161460;27;41745;-73
2022/03/15 03:13:57;;;;;;;8.43;5.63;;;;;;;3.28;71.45;100014.34;5161467;27;41612;-77
2022/03/15 03:16:26;;;;;;;8.70;6.07;;;;;;;3.69;70.80;100099.28;5160898;27;43486;-79
2022/03/15 03:18:58;;;;;;;7.67;5.17;;;;;;;3.70;70.22;100101.03;5161686;27;40888;-79
2022/03/15 03:21:27;;;;;;;5.60;3.93;;;;;;;3.72;70.00;100105.31;5166662;27;41563;-81
2022/03/15 03:23:56;;;;;;;5.97;4.17;;;;;;;3.73;69.54;100091.34;5158852;27;43804;-75
2022/03/15 03:26:24;;;;;;;5.90;5.20;;;;;;;3.72;71.08;100079.13;5140652;27;42722;-79
2022/03/15 03:28:53;;;;;;;8.03;6.00;;;;;;;3.71;72.69;100064.28;5139791;27;40078;-76
2022/03/15 03:31:22;;;;;;;8.20;5.67;;;;;;;3.70;72.38;100086.19;5156139;27;41980;-78
2022/03/15 03:33:50;;;;;;;8.17;5.10;;;;;;;3.69;71.99;100089.69;5155115;27;42765;-75
2022/03/15 03:36:17;;;;;;;9.93;5.57;;;;;;;3.69;71.68;100075.72;5145192;27;42728;-75
2022/03/15 03:38:47;;;;;;;7.27;4.90;;;;;;;3.68;73.45;100064.38;5176093;27;41822;-73
2022/03/15 03:41:15;;;;;;;8.13;5.77;;;;;;;3.67;72.97;100074.88;5140335;27;42462;-77
2022/03/15 03:43:42;;;;;;;7.10;5.03;;;;;;;3.35;72.23;100022.94;5176436;27;42634;-77
2022/03/15 03:46:10;;;;;;;7.13;4.87;;;;;;;3.70;71.69;100080.94;5176369;27;43454;-77
2022/03/15 03:48:39;;;;;;;8.50;5.53;;;;;;;3.71;71.58;100077.41;5176567;27;40967;-77
2022/03/15 03:51:08;;;;;;;6.93;5.17;;;;;;;3.69;72.68;100068.72;5140176;27;40631;-76
2022/03/15 03:53:35;;;;;;;8.57;5.00;;;;;;;3.68;72.85;100077.47;5157697;27;42585;-77
2022/03/15 03:56:03;;;;;;;7.37;5.63;;;;;;;3.69;72.74;100078.34;5192424;27;45153;-76
2022/03/15 03:58:30;;;;;;;9.97;5.63;;;;;;;3.66;72.21;100081.84;5162554;27;40302;-75
2022/03/15 04:00:58;;;;;;;7.13;4.37;;;;;;;3.68;71.73;100082.72;5166551;27;42563;-72
2022/03/15 04:03:29;;;;;;;7.53;4.70;;;;;;;3.71;72.66;100061.69;5166969;27;43853;-73
2022/03/15 04:06:01;;;;;;;7.80;5.07;;;;;;;3.72;72.76;100058.16;5167159;27;41044;-75
2022/03/15 04:08:28;;;;;;;8.83;5.33;;;;;;;3.74;72.21;100072.13;5182198;27;40053;-74
2022/03/15 04:10:56;;;;;;;6.20;4.03;;;;;;;3.76;71.70;100079.97;5163873;27;42231;-74
2022/03/15 04:13:25;;;;;;;4.57;3.67;;;;;;;3.79;71.56;100085.16;5157024;27;41716;-75
2022/03/15 04:15:52;;;;;;;6.17;4.30;;;;;;;3.79;71.69;100075.53;5156532;27;42339;-77
2022/03/15 04:18:19;;;;;;;6.83;4.00;;;;;;;3.78;71.30;100062.47;5175869;27;40882;-74
2022/03/15 04:20:47;;;;;;;5.40;4.23;;;;;;;3.81;71.20;100081.63;5156593;27;41864;-74
2022/03/15 04:23:16;;;;;;;5.27;3.77;;;;;;;3.83;70.87;100081.59;5154014;27;42925;-75
2022/03/15 04:25:43;;;;;;;4.80;3.50;;;;;;;3.81;70.72;100063.28;5154224;27;43208;-80
2022/03/15 04:28:14;;;;;;;5.77;4.17;;;;;;;3.82;70.37;100059.78;5154349;27;41006;-76
2022/03/15 04:30:42;;;;;;;6.17;4.40;;;;;;;3.82;71.65;100033.56;5135547;27;41742;-78
2022/03/15 04:33:09;;;;;;;9.20;5.57;;;;;;;3.80;71.84;100045.84;5153043;27;43173;-78
2022/03/15 04:35:37;;;;;;;10.70;5.87;;;;;;;3.74;72.78;100045.91;5152975;27;40817;-79
2022/03/15 04:38:04;;;;;;;7.93;5.07;;;;;;;3.70;72.44;100053.88;5152894;27;40844;-76
2022/03/15 04:40:33;;;;;;;5.50;3.97;;;;;;;3.59;72.10;100040.91;5154214;27;41710;-77
2022/03/15 04:43:01;;;;;;;6.97;4.80;;;;;;;3.74;71.68;100071.25;5135487;27;43483;-76
2022/03/15 04:45:29;;;;;;;7.23;4.77;;;;;;;3.67;71.64;100059.16;5154148;27;42214;-76
2022/03/15 04:47:56;;;;;;;7.10;4.73;;;;;;;3.75;71.42;100071.22;5155677;27;40486;-76
2022/03/15 04:50:24;;;;;;;8.00;4.70;;;;;;;3.76;71.11;100065.09;5155615;27;40444;-79
2022/03/15 04:52:51;;;;;;;7.97;4.40;;;;;;;3.76;71.08;100048.50;5156321;27;42716;-73
2022/03/15 04:55:19;;;;;;;6.47;5.00;;;;;;;3.74;72.13;100035.44;5156027;27;42216;-75
2022/03/15 04:57:49;;;;;;;7.97;4.97;;;;;;;3.68;71.65;100029.44;5139019;27;39010;-78
2022/03/15 05:00:17;;;;;;;6.37;4.63;;;;;;;3.72;71.17;100025.88;5174629;27;41928;-72
2022/03/15 05:02:45;;;;;;;6.73;4.73;;;;;;;3.73;71.37;100032.84;5155518;27;42938;-73
2022/03/15 05:05:14;;;;;;;5.20;4.70;;;;;;;3.73;72.29;100038.94;5190896;27;42344;-75
2022/03/15 05:07:42;;;;;;;6.60;4.63;;;;;;;3.71;72.14;100040.72;5156193;27;38915;-76
2022/03/15 05:12:57;;;;;;;6.70;5.10;;;;;;;3.71;72.06;100038.09;5171496;27;42830;-75
2022/03/15 05:15:24;;;;;;;4.97;4.37;;;;;;;3.72;72.30;100045.06;5155481;27;41507;-74
2022/03/15 05:17:51;;;;;;;8.80;4.80;;;;;;;3.72;72.47;100039.84;5155900;27;42063;-77
2022/03/15 05:20:19;;;;;;;5.90;4.57;;;;;;;3.66;72.34;100016.38;5138165;27;42497;-75
2022/03/15 05:22:47;;;;;;;6.00;4.53;;;;;;;3.75;72.79;100016.22;5151566;27;42751;-76
2022/03/15 05:25:14;;;;;;;5.23;4.57;;;;;;;3.77;72.53;100019.69;5153143;27;42550;-77
2022/03/15 05:27:43;;;;;;;7.37;5.07;;;;;;;3.79;72.26;100023.13;5146782;27;39840;-77
2022/03/15 05:30:13;;;;;;;9.83;4.30;;;;;;;3.80;71.95;100030.13;5130658;27;43149;-77
2022/03/15 05:32:40;;;;;;;5.07;4.13;;;;;;;3.83;71.67;100029.22;5133948;27;41736;-77
2022/03/15 05:35:08;;;;;;;5.40;3.40;;;;;;;3.84;71.70;100023.91;5153003;27;42161;-76
2022/03/15 05:37:36;;;;;;;7.90;4.47;;;;;;;3.86;71.83;100019.50;5153054;27;39918;-75
2022/03/15 05:40:04;;;;;;;6.53;4.50;;;;;;;3.89;71.78;100022.09;5152377;27;41714;-78
2022/03/15 05:42:31;;;;;;;4.57;4.13;;;;;;;3.60;72.73;99962.31;5153286;27;42815;-78
2022/03/15 05:44:59;;;;;;;5.40;4.33;;;;;;;3.93;72.12;100015.91;5134490;27;42265;-77
2022/03/15 05:47:28;;;;;;;6.67;4.33;;;;;;;3.97;71.75;100014.94;5141330;27;39921;-77
2022/03/15 05:49:56;;;;;;;7.17;3.87;;;;;;;4.02;71.50;100011.41;5134356;27;40590;-74
2022/03/15 05:52:23;;;;;;;8.17;4.03;;;;;;;4.02;71.26;100009.63;5134390;27;42873;-76
2022/03/15 05:54:50;;;;;;;4.40;3.33;;;;;;;4.09;71.40;100015.63;5151877;27;42266;-75
2022/03/15 05:57:18;;;;;;;6.67;4.87;;;;;;;4.07;72.50;99988.59;5134266;27;40122;-76
2022/03/15 05:59:45;;;;;;;8.90;5.03;;;;;;;4.15;72.95;99991.94;5133206;27;42410;-76
2022/03/15 06:02:13;;;;;;;6.77;4.83;;;;;;;4.19;73.04;100001.50;5134646;27;43994;-78
2022/03/15 06:04:42;;;;;;;6.77;4.80;;;;;;;4.26;72.87;100005.72;5133809;27;42619;-77
2022/03/15 06:07:10;;;;;;;4.77;4.00;;;;;;;4.33;72.32;100015.19;5134696;27;39697;-77
2022/03/15 06:09:37;;;;;;;5.40;3.77;;;;;;;4.40;72.01;100011.56;5134274;27;40697;-78
2022/03/15 06:12:07;;;;;;;5.17;3.90;;;;;;;4.42;72.18;100011.53;5135378;27;41891;-77
2022/03/15 06:14:34;;;;;;;6.37;4.63;;;;;;;4.47;72.27;100013.16;5152069;27;43449;-79
2022/03/15 06:17:02;;;;;;;7.13;4.73;;;;;;;4.53;72.00;100017.44;5133986;27;41999;-76
2022/03/15 06:19:29;;;;;;;4.87;3.87;;;;;;;4.58;71.99;100016.44;5152884;27;41852;-74
2022/03/15 06:21:58;;;;;;;4.63;3.93;;;;;;;4.68;71.65;100011.91;5169044;27;42335;-78
2022/03/15 06:24:26;;;;;;;5.07;4.37;;;;;;;4.76;71.08;100015.22;5133746;27;42444;-79
2022/03/15 06:26:54;;;;;;;6.47;4.37;;;;;;;4.84;70.96;100022.91;5152915;27;40901;-77
2022/03/15 06:29:22;;;;;;;5.10;4.03;;;;;;;4.87;70.67;100017.63;5152242;27;41385;-78
2022/03/15 06:31:49;;;;;;;5.50;4.13;;;;;;;4.98;70.77;100026.13;5133963;27;43084;-79
2022/03/15 06:34:17;;;;;;;5.77;4.20;;;;;;;5.08;70.36;100032.91;5148610;27;41474;-79
2022/03/15 06:36:44;;;;;;;6.20;4.83;;;;;;;5.16;70.39;100028.38;5151272;27;40976;-75
2022/03/15 06:39:13;;;;;;;6.30;4.87;;;;;;;5.25;70.18;100025.53;5128390;27;43310;-76
2022/03/15 06:41:43;;;;;;;7.60;4.50;;;;;;;5.34;70.16;100030.56;5152713;27;43803;-80
2022/03/15 06:44:11;;;;;;;5.33;4.40;;;;;;;5.38;70.12;100011.22;5133720;27;42399;-77
2022/03/15 06:46:39;;;;;;;4.77;4.10;;;;;;;5.55;69.65;100028.38;5116591;27;41596;-77
2022/03/15 06:49:06;;;;;;;7.13;5.07;;;;;;;5.64;69.56;100020.28;5169519;27;41745;-75
2022/03/15 06:51:34;;;;;;;6.40;4.57;;;;;;;5.76;69.27;100033.13;5153403;27;42648;-75
2022/03/15 06:54:01;;;;;;;6.03;4.07;;;;;;;5.86;69.13;100026.72;5153970;27;42266;-74
2022/03/15 06:56:31;;;;;;;4.77;4.20;;;;;;;5.98;69.20;100018.56;5154022;27;42216;-75
2022/03/15 06:58:58;;;;;;;6.63;4.97;;;;;;;6.08;69.25;100013.94;5157859;27;42482;-76
2022/03/15 07:01:26;;;;;;;8.03;4.67;;;;;;;6.19;69.13;100011.00;5133269;27;42879;-75
2022/03/15 07:03:53;;;;;;;7.97;4.50;;;;;;;6.31;69.07;100010.69;5167321;27;42172;-75
2022/03/15 07:06:21;;;;;;;6.17;4.37;;;;;;;6.40;69.08;100011.31;5153151;27;40282;-79
2022/03/15 07:08:48;;;;;;;7.63;4.40;;;;;;;6.48;68.78;100013.75;5147482;27;41972;-77
2022/03/15 07:11:16;;;;;;;8.13;4.93;;;;;;;6.52;68.47;100004.00;5153950;27;42344;-76
2022/03/15 07:13:45;;;;;;;7.07;4.60;;;;;;;6.70;68.40;100009.59;5153980;27;42759;-76
2022/03/15 07:16:14;;;;;;;5.30;4.13;;;;;;;6.81;68.73;100014.56;5137037;27;40926;-80
2022/03/15 07:18:41;;;;;;;6.67;5.40;;;;;;;6.94;68.27;100017.69;5143891;27;40643;-78
2022/03/15 07:21:09;;;;;;;6.60;4.70;;;;;;;7.07;68.18;100013.78;5152796;27;42784;-77
2022/03/15 07:23:37;;;;;;;8.27;5.53;;;;;;;7.20;67.73;100001.97;5141278;27;42705;-75
2022/03/15 07:26:04;;;;;;;7.03;4.97;;;;;;;7.36;67.22;100011.16;5154932;27;41030;-77
2022/03/15 07:28:32;;;;;;;4.97;4.43;;;;;;;7.49;67.15;100007.22;5136541;27;42660;-78
2022/03/15 07:31:02;;;;;;;4.53;4.10;;;;;;;7.64;66.91;100005.00;5146938;27;42809;-78
2022/03/15 07:33:29;;;;;;;9.33;4.93;;;;;;;7.74;66.64;100006.44;5143794;27;40695;-77
2022/03/15 07:35:57;;;;;;;8.57;4.97;;;;;;;7.80;66.30;100000.94;5136455;27;40913;-75
2022/03/15 07:38:24;;;;;;;6.27;4.53;;;;;;;7.85;66.07;99991.97;5153889;27;41914;-80
2022/03/15 07:40:52;;;;;;;5.47;4.13;;;;;;;7.95;65.77;99995.16;5143244;27;41125;-77
2022/03/15 07:43:23;;;;;;;5.60;4.40;;;;;;;8.05;65.69;99991.28;5144650;27;43304;-77
2022/03/15 07:45:51;;;;;;;5.67;4.63;;;;;;;8.12;65.49;99987.56;5143142;27;41715;-77
2022/03/15 07:48:20;;;;;;;7.53;4.47;;;;;;;8.21;65.47;99976.66;5127769;27;41710;-79
2022/03/15 07:50:49;;;;;;;4.97;4.43;;;;;;;8.39;64.77;99984.91;5136164;27;42724;-80
2022/03/15 07:53:16;;;;;;;6.13;4.47;;;;;;;8.48;64.44;99996.00;5135553;27;40990;-78
2022/03/15 07:55:44;;;;;;;7.93;5.10;;;;;;;8.57;64.39;99984.22;5136553;27;39623;-79
2022/03/15 07:58:11;;;;;;;6.90;4.70;;;;;;;8.68;63.80;99992.59;5154376;27;42543;-77
2022/03/15 08:00:39;;;;;;;7.90;4.83;;;;;;;8.77;63.61;99984.38;5136178;27;43840;-79
2022/03/15 08:03:06;;;;;;;7.07;4.50;;;;;;;8.87;63.78;99984.88;5170387;27;42434;-76
2022/03/15 08:05:35;;;;;;;5.03;4.00;;;;;;;8.97;63.46;99973.91;5136277;27;40287;-77
2022/03/15 08:08:07;;;;;;;5.83;4.27;;;;;;;9.05;62.82;99975.38;5135324;27;42643;-77
2022/03/15 08:10:35;;;;;;;4.83;3.77;;;;;;;9.11;62.52;99976.03;5154282;27;42747;-77
2022/03/15 08:13:02;;;;;;;6.60;3.80;;;;;;;9.21;62.68;99976.53;5135445;27;42180;-83
2022/03/15 08:15:30;;;;;;;5.37;4.07;;;;;;;9.35;62.40;99976.84;5154639;27;40360;-81
2022/03/15 08:18:02;;;;;;;6.13;4.60;;;;;;;9.49;62.21;99982.44;5118222;27;41193;-80
2022/03/15 08:20:33;;;;;;;6.00;4.33;;;;;;;9.60;61.82;99980.22;5114551;27;43208;-76
2022/03/15 08:23:02;;;;;;;5.17;3.63;;;;;;;9.64;61.29;99973.88;5137995;27;42310;-77
2022/03/15 08:25:29;;;;;;;5.37;3.80;;;;;;;9.78;61.16;99967.16;5135817;27;41175;-76
2022/03/15 08:27:58;;;;;;;3.80;3.40;;;;;;;9.89;60.70;99972.88;5138141;27;41485;-82
2022/03/15 08:30:26;;;;;;;5.03;4.03;;;;;;;9.99;60.45;99964.50;5135422;27;42806;-75
2022/03/15 08:32:53;;;;;;;5.67;3.83;;;;;;;10.03;60.21;99957.25;5122007;27;41544;-74
2022/03/15 08:35:22;;;;;;;4.10;3.63;;;;;;;10.18;60.16;99955.75;5153488;27;40873;-73
2022/03/15 08:37:51;;;;;;;5.93;3.60;;;;;;;10.33;59.86;99945.38;5147383;27;40322;-80
2022/03/15 08:40:22;;;;;;;4.60;3.43;;;;;;;10.48;60.08;99948.28;5154697;27;42682;-78
2022/03/15 08:42:56;;;;;;;5.03;3.37;;;;;;;10.69;59.46;99942.88;5144593;27;42116;-79
2022/03/15 08:45:23;;;;;;;4.53;3.60;;;;;;;10.99;58.74;99934.44;5134948;27;40338;-82
2022/03/15 08:47:52;;;;;;;5.40;3.33;;;;;;;11.37;57.87;99948.53;5166779;27;42679;-81
2022/03/15 08:50:20;;;;;;;4.97;3.50;;;;;;;11.62;56.90;99956.16;5135538;27;42802;-78
2022/03/15 08:52:48;;;;;;;3.43;2.80;;;;;;;11.77;56.58;99952.75;5153844;27;42024;-85
2022/03/15 08:55:17;;;;;;;4.07;3.27;;;;;;;12.09;56.20;99956.44;5117890;27;39354;-79
2022/03/15 08:57:46;;;;;;;4.93;3.53;;;;;;;12.20;55.26;99949.66;5134573;27;42622;-81
2022/03/15 09:00:15;;;;;;;4.37;3.37;;;;;;;12.41;54.28;99952.13;5135487;27;42371;-78
2022/03/15 09:02:42;;;;;;;3.70;2.93;;;;;;;12.46;54.13;99924.38;5138030;27;43302;-81
2022/03/15 09:05:11;;;;;;;6.17;3.83;;;;;;;12.66;53.50;99931.28;5151904;27;39112;-81
2022/03/15 09:07:39;;;;;;;4.90;3.67;;;;;;;12.44;53.11;99899.69;5152130;27;41832;-78
2022/03/15 09:10:07;;;;;;;4.27;3.83;;;;;;;12.78;53.68;99924.44;5152140;27;43734;-83
2022/03/15 09:12:35;;;;;;;3.30;2.97;;;;;;;12.83;52.63;99933.03;5133033;27;41664;-80
2022/03/15 09:15:05;;;;;;;4.07;3.47;;;;;;;13.07;52.68;99937.00;5117788;27;40338;-81
2022/03/15 09:17:33;;;;;;;2.63;2.40;;;;;;;13.34;52.08;99933.78;5131427;27;41794;-78
2022/03/15 09:20:00;;;;;;;3.67;3.00;;;;;;;13.63;50.97;99939.13;5153522;27;42539;-85
2022/03/15 09:22:28;;;;;;;4.50;3.30;;;;;;;14.02;51.38;99933.28;5133211;27;40914;-76
2022/03/15 09:24:56;;;;;;;3.73;3.20;;;;;;;14.50;51.52;99917.97;5118233;27;41285;-80
2022/03/15 09:27:23;;;;;;;4.57;3.40;;;;;;;14.85;49.67;99929.09;5118262;27;40696;-79
2022/03/15 09:29:51;;;;;;;5.57;3.00;;;;;;;14.85;48.63;99938.91;5152430;27;43445;-80
2022/03/15 09:32:20;;;;;;;4.47;3.40;;;;;;;14.78;48.80;99932.25;5153003;27;42296;-80
2022/03/15 09:34:48;;;;;;;4.17;3.57;;;;;;;14.73;48.45;99936.06;5117574;27;39050;-82
2022/03/15 09:37:16;;;;;;;3.40;3.03;;;;;;;14.62;48.91;99933.19;5152719;27;41695;-81
2022/03/15 09:39:45;;;;;;;5.67;4.00;;;;;;;14.59;49.59;99929.84;5117140;27;42935;-80
2022/03/15 09:42:12;;;;;;;3.97;3.37;;;;;;;14.60;49.86;99907.56;5134288;27;42880;-80
2022/03/15 09:44:42;;;;;;;4.57;3.10;;;;;;;14.58;50.03;99904.19;5134244;27;39997;-80
2022/03/15 09:47:10;;;;;;;4.73;3.70;;;;;;;14.49;48.97;99897.59;5133722;27;42689;-78
2022/03/15 09:49:39;;;;;;;4.93;3.23;;;;;;;14.40;49.58;99898.16;5117159;27;41993;-78
2022/03/15 09:52:09;;;;;;;3.80;3.10;;;;;;;14.38;50.31;99881.38;5152642;27;42451;-80
2022/03/15 09:54:38;;;;;;;4.33;3.07;;;;;;;14.41;50.20;99870.56;5119683;27;39526;-77
2022/03/15 09:57:07;;;;;;;4.77;3.17;;;;;;;14.43;50.29;99852.66;5152285;27;41837;-80
2022/03/15 09:59:35;;;;;;;4.23;3.83;;;;;;;14.55;49.90;99862.56;5152573;27;43748;-75
2022/03/15 10:02:03;;;;;;;3.70;2.93;;;;;;;14.71;50.30;99855.28;5152781;27;42282;-76
2022/03/15 10:04:31;;;;;;;3.30;2.90;;;;;;;14.85;49.13;99841.06;5133056;27;40306;-80
2022/03/15 10:07:00;;;;;;;3.30;2.93;;;;;;;15.09;47.42;99857.31;5134185;27;41951;-79
2022/03/15 10:09:28;;;;;;;3.33;2.83;;;;;;;15.33;46.93;99854.88;5116786;27;44066;-77
2022/03/15 10:11:55;;;;;;;3.60;3.00;;;;;;;15.75;47.42;99840.47;5134166;27;43307;-79
2022/03/15 10:14:23;;;;;;;2.80;2.60;;;;;;;16.36;45.61;99846.91;5134076;27;40881;-78
2022/03/15 10:16:51;;;;;;;3.87;2.80;;;;;;;16.92;44.01;99855.41;5152585;27;42045;-77
2022/03/15 10:19:19;;;;;;;3.80;2.53;;;;;;;17.31;42.78;99863.16;5149995;27;43696;-74
2022/03/15 10:21:50;;;;;;;3.67;2.93;;;;;;;17.34;41.63;99846.88;5185575;27;42996;-80
2022/03/15 10:24:22;;;;;;;3.80;3.10;;;;;;;17.43;42.27;99856.91;5133988;27;40030;-78
2022/03/15 10:26:52;;;;;;;4.20;3.10;;;;;;;17.51;41.96;99857.19;5133910;27;42236;-81
2022/03/15 10:29:20;;;;;;;2.80;2.50;;;;;;;17.62;42.08;99850.16;5149816;27;41909;-77
2022/03/15 10:31:49;;;;;;;3.53;3.23;;;;;;;17.51;42.01;99822.38;5121614;27;41590;-80
2022/03/15 10:34:17;;;;;;;3.63;2.97;;;;;;;17.48;41.95;99816.38;5149683;27;40101;-80
2022/03/15 10:36:46;;;;;;;3.93;2.80;;;;;;;17.48;41.81;99822.59;5133927;27;42755;-79
2022/03/15 10:39:16;;;;;;;3.40;3.10;;;;;;;17.28;41.56;99820.56;5134264;27;45045;-79
2022/03/15 10:41:51;;;;;;;3.23;2.83;;;;;;;17.14;41.63;99812.72;5155682;27;42272;-77
2022/03/15 10:44:21;;;;;;;5.10;3.20;;;;;;;17.02;42.03;99816.31;5119533;27;39313;-81
2022/03/15 10:47:04;;;;;;;4.33;3.00;;;;;;;17.00;42.39;99804.84;5156031;27;42304;-79
2022/03/15 10:49:34;;;;;;;5.27;3.53;;;;;;;16.91;42.86;99792.16;5124278;27;41638;-80
2022/03/15 10:52:01;;;;;;;4.37;3.40;;;;;;;16.87;43.35;99794.19;5139857;27;41747;-80
2022/03/15 10:54:30;;;;;;;5.80;3.60;;;;;;;16.88;43.05;99788.72;5137089;27;38881;-81
2022/03/15 10:57:00;;;;;;;5.03;3.63;;;;;;;17.04;42.98;99784.94;5155151;27;41720;-78
2022/03/15 10:59:28;;;;;;;5.00;3.33;;;;;;;17.34;42.76;99787.97;5136836;27;43468;-78
2022/03/15 11:01:56;;;;;;;6.47;3.67;;;;;;;17.54;42.05;99787.34;5155518;27;42831;-77
2022/03/15 11:04:23;;;;;;;5.13;3.40;;;;;;;17.61;41.52;99787.69;5119163;27;39887;-74
2022/03/15 11:06:55;;;;;;;5.50;4.10;;;;;;;17.59;40.70;99779.78;5119934;27;41586;-83
2022/03/15 11:09:44;;;;;;;4.80;3.80;;;;;;;17.44;41.24;99777.41;5136470;27;42687;-78
2022/03/15 11:12:14;;;;;;;7.43;4.90;;;;;;;17.26;41.82;99774.31;5136399;27;42274;-76
2022/03/15 11:14:46;;;;;;;5.97;4.13;;;;;;;16.96;41.43;99765.88;5155104;27;41860;-77
2022/03/15 11:17:15;;;;;;;5.30;4.10;;;;;;;16.66;41.77;99758.31;5151778;27;41904;-77
2022/03/15 11:19:51;;;;;;;4.80;4.13;;;;;;;16.38;42.58;99764.78;5153614;27;43830;-82
2022/03/15 11:22:21;;;;;;;4.57;4.13;;;;;;;16.21;43.33;99757.09;5152120;27;43022;-75
2022/03/15 11:24:58;;;;;;;4.70;4.20;;;;;;;16.15;44.07;99763.75;5136842;27;39179;-78
2022/03/15 11:27:32;;;;;;;5.23;3.60;;;;;;;15.97;44.08;99755.19;5133462;27;41961;-80
2022/03/15 11:30:02;;;;;;;5.53;4.33;;;;;;;15.96;43.84;99769.53;5135633;27;42823;-78
2022/03/15 11:32:30;;;;;;;6.20;4.40;;;;;;;15.84;43.82;99759.69;5137427;27;41883;-76
2022/03/15 11:34:58;;;;;;;5.20;3.83;;;;;;;15.77;43.99;99753.94;5153706;27;40338;-77
2022/03/15 11:37:26;;;;;;;7.30;4.60;;;;;;;15.71;44.22;99741.00;5152977;27;41517;-80
2022/03/15 11:39:54;;;;;;;5.57;4.13;;;;;;;15.67;44.49;99726.16;5154675;27;42794;-75
2022/03/15 11:42:22;;;;;;;6.40;4.63;;;;;;;15.75;44.43;99704.25;5119136;27;42884;-76